createdAt,value
2023-01-01T00:00:19.061Z,49.26
2023-01-01T00:03:21.030Z,49.56
2023-01-01T00:06:23.272Z,49.70
2023-01-01T00:09:43.325Z,49.72
2023-01-01T00:12:44.794Z,50.21
2023-01-01T00:18:05.845Z,49.98
2023-01-01T00:21:11.797Z,48.68
2023-01-01T00:24:13.192Z,48.66
2023-01-01T00:27:14.562Z,48.29
2023-01-01T00:30:15.975Z,49.01
2023-01-01T00:33:17.495Z,49.54
2023-01-01T00:36:21.487Z,49.96
2023-01-01T00:39:22.878Z,50.43
2023-01-01T00:42:24.314Z,50.56
2023-01-01T00:45:25.723Z,50.59
2023-01-01T00:48:27.183Z,49.71
2023-01-01T00:51:34.760Z,49.73
2023-01-01T00:54:38.264Z,50.36
2023-01-01T00:57:39.709Z,50.67
2023-01-01T01:00:41.995Z,49.81
2023-01-01T01:03:43.643Z,49.54
2023-01-01T01:06:45.358Z,50.27
2023-01-01T01:09:46.792Z,50.17
2023-01-01T01:12:48.439Z,50.30
2023-01-01T01:15:56.112Z,50.85
2023-01-01T01:19:00.413Z,51.57
2023-01-01T01:22:01.872Z,51.13
2023-01-01T01:25:04.926Z,51.74
2023-01-01T01:28:06.344Z,52.38
2023-01-01T01:31:09.131Z,52.15
2023-01-01T01:34:15.381Z,52.10
2023-01-01T01:37:17.629Z,52.13
2023-01-01T01:40:19.480Z,52.54
2023-01-01T01:43:32.713Z,51.30
2023-01-01T01:46:44.709Z,51.37
2023-01-01T01:49:46.746Z,51.33
2023-01-01T01:53:03.095Z,51.10
2023-01-01T01:56:12.385Z,51.10
2023-01-01T01:59:14.731Z,51.56
2023-01-01T02:02:23.940Z,51.04
2023-01-01T02:05:26.045Z,51.26
2023-01-01T02:08:28.422Z,50.45
2023-01-01T02:11:29.861Z,50.27
2023-01-01T02:14:33.193Z,50.30
2023-01-01T02:17:55.582Z,50.22
2023-01-01T02:21:06.324Z,50.26
2023-01-01T02:24:36.519Z,50.22
2023-01-01T02:28:06.074Z,50.17
2023-01-01T02:31:10.111Z,49.57
2023-01-01T02:34:15.126Z,49.64
2023-01-01T02:37:19.902Z,49.88
2023-01-01T02:40:23.765Z,50.29
2023-01-01T02:43:25.369Z,49.38
2023-01-01T02:46:32.430Z,49.63
2023-01-01T02:49:37.724Z,49.09
2023-01-01T02:52:54.299Z,48.63
2023-01-01T02:56:12.029Z,49.52
2023-01-01T02:59:47.253Z,49.75
2023-01-01T03:03:05.536Z,49.67
2023-01-01T03:06:24.735Z,48.85
2023-01-01T03:09:55.206Z,49.23
2023-01-01T03:13:12.308Z,49.64
2023-01-01T03:16:28.389Z,49.41
2023-01-01T03:19:37.322Z,49.71
2023-01-01T03:25:51.367Z,49.72
2023-01-01T03:28:59.007Z,49.91
2023-01-01T03:32:04.466Z,49.90
2023-01-01T03:35:06.230Z,49.62
2023-01-01T03:38:18.171Z,49.06
2023-01-01T03:41:40.685Z,49.68
2023-01-01T03:44:54.008Z,49.58
2023-01-01T03:47:56.612Z,49.96
2023-01-01T03:51:26.781Z,50.14
2023-01-01T03:54:34.528Z,50.93
2023-01-01T03:57:57.950Z,50.02
2023-01-01T04:01:23.708Z,50.32
2023-01-01T04:04:26.909Z,50.60
2023-01-01T04:07:31.124Z,51.18
2023-01-01T04:10:35.985Z,51.29
2023-01-01T04:13:47.934Z,50.81
2023-01-01T04:16:49.389Z,50.84
2023-01-01T04:19:54.976Z,50.37
2023-01-01T04:22:58.349Z,50.33
2023-01-01T04:25:59.777Z,50.33
2023-01-01T04:29:01.229Z,50.28
2023-01-01T04:32:03.219Z,49.56
2023-01-01T04:35:06.042Z,49.21
2023-01-01T04:38:07.431Z,49.47
2023-01-01T04:41:09.481Z,48.89
2023-01-01T04:44:11.005Z,48.01
2023-01-01T04:47:12.498Z,47.91
2023-01-01T04:50:14.010Z,48.02
2023-01-01T04:53:15.434Z,47.67
2023-01-01T04:56:20.070Z,47.63
2023-01-01T04:59:21.525Z,47.73
2023-01-01T05:02:23.117Z,47.64
2023-01-01T05:05:25.662Z,47.40
2023-01-01T05:08:29.608Z,47.53
2023-01-01T05:11:31.804Z,47.12
2023-01-01T05:14:33.601Z,47.58
2023-01-01T05:17:34.985Z,47.30
2023-01-01T05:20:37.885Z,47.65
2023-01-01T05:23:39.907Z,47.16
2023-01-01T05:26:46.082Z,47.37
2023-01-01T05:29:47.565Z,46.63
2023-01-01T05:32:48.974Z,47.27
2023-01-01T05:35:54.852Z,47.29
2023-01-01T05:38:57.116Z,47.78
2023-01-01T05:41:58.573Z,47.16
2023-01-01T05:45:00.121Z,46.91
2023-01-01T05:48:01.641Z,47.47
2023-01-01T05:51:05.103Z,47.00
2023-01-01T05:54:06.744Z,47.86
2023-01-01T05:57:08.221Z,47.89
2023-01-01T06:00:10.352Z,48.30
2023-01-01T06:03:11.678Z,47.30
2023-01-01T06:06:15.543Z,47.05
2023-01-01T06:09:16.965Z,47.88
2023-01-01T06:12:18.413Z,48.09
2023-01-01T06:15:19.803Z,47.64
2023-01-01T06:18:21.257Z,47.89
2023-01-01T06:21:25.354Z,47.67
2023-01-01T06:24:26.747Z,47.17
2023-01-01T06:27:28.122Z,47.71
2023-01-01T06:30:31.359Z,47.12
2023-01-01T06:33:32.883Z,46.75
2023-01-01T06:36:34.916Z,47.16
2023-01-01T06:39:36.337Z,47.49
2023-01-01T06:42:37.802Z,47.49
2023-01-01T06:45:39.210Z,47.44
2023-01-01T06:48:40.655Z,47.12
2023-01-01T06:51:43.804Z,47.38
2023-01-01T06:54:45.221Z,47.81
2023-01-01T06:57:46.609Z,47.40
2023-01-01T07:00:48.077Z,47.76
2023-01-01T07:04:12.292Z,47.30
2023-01-01T07:07:13.737Z,46.94
2023-01-01T07:10:15.259Z,47.14
2023-01-01T07:13:16.688Z,47.07
2023-01-01T07:16:18.203Z,47.57
2023-01-01T07:19:19.609Z,47.46
2023-01-01T07:22:21.021Z,47.69
2023-01-01T07:25:22.562Z,47.10
2023-01-01T07:28:25.184Z,46.62
2023-01-01T07:31:26.696Z,47.11
2023-01-01T07:34:28.110Z,47.02
2023-01-01T07:37:29.589Z,47.15
2023-01-01T07:40:31.232Z,47.32
2023-01-01T07:43:32.656Z,47.40
2023-01-01T07:46:35.733Z,47.19
2023-01-01T07:49:37.166Z,47.63
2023-01-01T07:52:38.542Z,48.04
2023-01-01T07:55:39.970Z,47.81
2023-01-01T07:58:41.677Z,48.66
2023-01-01T08:01:43.154Z,48.96
2023-01-01T08:04:44.582Z,48.15
2023-01-01T08:07:50.715Z,48.04
2023-01-01T08:10:52.126Z,48.42
2023-01-01T08:13:53.537Z,48.57
2023-01-01T08:16:54.978Z,48.80
2023-01-01T08:19:56.369Z,48.87
2023-01-01T08:23:03.010Z,48.91
2023-01-01T08:26:13.652Z,48.34
2023-01-01T08:29:15.137Z,47.56
2023-01-01T08:32:16.534Z,48.05
2023-01-01T08:35:17.955Z,47.84
2023-01-01T08:38:19.528Z,48.18
2023-01-01T08:41:21.002Z,47.92
2023-01-01T08:44:22.586Z,46.62
2023-01-01T08:47:26.509Z,46.61
2023-01-01T08:50:27.919Z,46.30
2023-01-01T08:53:31.923Z,45.80
2023-01-01T08:56:33.372Z,46.02
2023-01-01T08:59:34.847Z,45.03
2023-01-01T09:02:36.331Z,44.45
2023-01-01T09:05:37.885Z,44.80
2023-01-01T09:08:40.747Z,44.78
2023-01-01T09:11:51.573Z,43.85
2023-01-01T09:14:52.964Z,43.50
2023-01-01T09:17:54.419Z,43.96
2023-01-01T09:20:55.830Z,44.00
2023-01-01T09:23:57.237Z,43.71
2023-01-01T09:26:58.657Z,44.10
2023-01-01T09:30:00.276Z,43.56
2023-01-01T09:33:04.317Z,43.11
2023-01-01T09:36:13.682Z,43.03
2023-01-01T09:39:16.094Z,42.69
2023-01-01T09:42:35.599Z,42.05
2023-01-01T09:45:53.874Z,41.87
2023-01-01T09:49:03.234Z,41.33
2023-01-01T09:52:05.630Z,41.82
2023-01-01T09:55:26.287Z,42.03
2023-01-01T09:58:38.210Z,41.92
2023-01-01T10:01:48.922Z,42.13
2023-01-01T10:05:15.251Z,42.43
2023-01-01T10:08:25.888Z,42.21
2023-01-01T10:11:55.629Z,42.48
2023-01-01T10:15:09.580Z,42.68
2023-01-01T10:18:23.415Z,42.95
2023-01-01T10:21:37.840Z,44.61
2023-01-01T10:24:50.796Z,44.05
2023-01-01T10:28:02.122Z,42.29
2023-01-01T10:31:20.169Z,42.31
2023-01-01T10:34:29.063Z,41.50
2023-01-01T10:37:37.046Z,41.22
2023-01-01T10:40:39.675Z,40.12
2023-01-01T10:43:41.102Z,39.45
2023-01-01T10:46:48.812Z,40.57
2023-01-01T10:50:02.626Z,40.22
2023-01-01T10:53:04.055Z,39.48
2023-01-01T10:56:09.826Z,39.39
2023-01-01T10:59:39.138Z,39.09
2023-01-01T11:02:40.620Z,38.98
2023-01-01T11:06:01.816Z,39.45
2023-01-01T11:09:18.252Z,39.65
2023-01-01T11:13:03.663Z,38.97
2023-01-01T11:15:52.946Z,39.14
2023-01-01T11:19:02.186Z,39.74
2023-01-01T11:22:05.557Z,39.01
2023-01-01T11:25:32.447Z,39.39
2023-01-01T11:28:36.936Z,39.40
2023-01-01T11:31:39.547Z,39.73
2023-01-01T11:34:43.763Z,38.92
2023-01-01T11:37:46.659Z,39.41
2023-01-01T11:40:51.761Z,39.00
2023-01-01T11:43:55.337Z,38.07
2023-01-01T11:46:58.011Z,38.23
2023-01-01T11:49:59.362Z,38.71
2023-01-01T11:53:28.100Z,38.29
2023-01-01T11:56:29.516Z,37.96
2023-01-01T11:59:49.686Z,36.61
2023-01-01T12:03:46.675Z,37.24
2023-01-01T12:06:59.702Z,37.99
2023-01-01T12:10:06.558Z,37.22
2023-01-01T12:13:17.499Z,36.98
2023-01-01T12:16:52.603Z,37.42
2023-01-01T12:20:06.389Z,37.42
2023-01-01T12:23:10.772Z,38.63
2023-01-01T12:26:34.267Z,38.20
2023-01-01T12:30:15.520Z,39.34
2023-01-01T12:33:54.387Z,39.35
2023-01-01T12:37:05.434Z,38.38
2023-01-01T12:40:43.401Z,38.13
2023-01-01T12:44:00.974Z,38.01
2023-01-01T12:47:20.667Z,38.23
2023-01-01T12:50:37.292Z,38.22
2023-01-01T12:53:57.855Z,37.82
2023-01-01T12:57:30.389Z,38.01
2023-01-01T13:00:32.081Z,38.04
2023-01-01T13:03:42.821Z,38.46
2023-01-01T13:07:08.889Z,38.72
2023-01-01T13:10:23.695Z,38.64
2023-01-01T13:13:25.729Z,38.62
2023-01-01T13:16:53.425Z,38.27
2023-01-01T13:20:19.271Z,38.14
2023-01-01T13:23:29.740Z,37.37
2023-01-01T13:26:32.081Z,37.73
2023-01-01T13:29:34.474Z,37.69
2023-01-01T13:33:10.969Z,39.74
2023-01-01T13:36:18.042Z,38.39
2023-01-01T13:39:57.139Z,38.07
2023-01-01T13:43:04.283Z,38.38
2023-01-01T13:46:13.531Z,38.45
2023-01-01T13:50:04.711Z,38.40
2023-01-01T13:53:23.738Z,38.48
2023-01-01T13:56:42.954Z,38.79
2023-01-01T14:00:10.470Z,39.27
2023-01-01T14:03:18.044Z,38.68
2023-01-01T14:06:32.334Z,38.18
2023-01-01T14:09:33.738Z,38.27
2023-01-01T14:12:38.173Z,37.72
2023-01-01T14:15:55.568Z,38.27
2023-01-01T14:18:59.583Z,38.01
2023-01-01T14:22:01.113Z,37.62
2023-01-01T14:25:09.014Z,38.20
2023-01-01T14:28:34.893Z,38.84
2023-01-01T14:31:41.825Z,38.34
2023-01-01T14:34:44.673Z,38.43
2023-01-01T14:37:46.060Z,38.79
2023-01-01T14:40:47.475Z,39.12
2023-01-01T14:43:51.924Z,38.83
2023-01-01T14:46:54.069Z,39.23
2023-01-01T14:50:00.613Z,39.58
2023-01-01T14:53:05.232Z,39.40
2023-01-01T14:56:07.462Z,40.36
2023-01-01T14:59:21.048Z,41.42
2023-01-01T15:02:30.136Z,41.45
2023-01-01T15:05:35.773Z,42.78
2023-01-01T15:08:37.594Z,43.02
2023-01-01T15:11:42.615Z,44.57
2023-01-01T15:14:45.759Z,45.25
2023-01-01T15:17:47.690Z,46.02
2023-01-01T15:20:54.694Z,46.61
2023-01-01T15:24:12.685Z,46.58
2023-01-01T15:27:24.683Z,47.96
2023-01-01T15:30:29.702Z,48.05
2023-01-01T15:33:31.171Z,47.65
2023-01-01T15:36:33.284Z,49.25
2023-01-01T15:39:44.684Z,49.54
2023-01-01T15:42:55.416Z,49.67
2023-01-01T15:46:11.899Z,48.59
2023-01-01T15:49:42.483Z,50.00
2023-01-01T15:52:49.160Z,50.24
2023-01-01T15:55:58.224Z,50.33
2023-01-01T15:59:28.458Z,51.17
2023-01-01T16:02:33.627Z,51.02
2023-01-01T16:05:35.274Z,51.41
2023-01-01T16:08:36.758Z,51.97
2023-01-01T16:11:38.124Z,52.12
2023-01-01T16:14:39.633Z,52.39
2023-01-01T16:17:41.295Z,53.48
2023-01-01T16:20:42.788Z,54.47
2023-01-01T16:23:44.322Z,54.25
2023-01-01T16:26:46.645Z,53.92
2023-01-01T16:29:54.437Z,54.68
2023-01-01T16:32:56.550Z,55.19
2023-01-01T16:35:58.105Z,54.93
2023-01-01T16:39:00.171Z,54.03
2023-01-01T16:42:01.624Z,53.36
2023-01-01T16:45:03.321Z,51.31
2023-01-01T16:48:04.857Z,50.20
2023-01-01T16:51:07.059Z,48.06
2023-01-01T16:54:08.591Z,47.13
2023-01-01T16:57:10.261Z,46.15
2023-01-01T17:00:12.627Z,45.51
2023-01-01T17:03:14.400Z,45.52
2023-01-01T17:06:16.132Z,44.94
2023-01-01T17:09:17.810Z,44.62
2023-01-01T17:12:19.288Z,43.87
2023-01-01T17:15:21.466Z,43.33
2023-01-01T17:18:39.422Z,42.84
2023-01-01T17:21:46.090Z,42.93
2023-01-01T17:24:47.658Z,43.29
2023-01-01T17:27:49.080Z,43.50
2023-01-01T17:30:50.573Z,43.53
2023-01-01T17:33:52.051Z,43.74
2023-01-01T17:36:53.450Z,43.81
2023-01-01T17:39:54.863Z,43.54
2023-01-01T17:42:56.241Z,43.79
2023-01-01T17:45:57.697Z,43.95
2023-01-01T17:49:00.660Z,43.85
2023-01-01T17:52:02.218Z,44.19
2023-01-01T17:55:03.926Z,44.18
2023-01-01T17:58:05.337Z,44.21
2023-01-01T18:01:13.061Z,45.10
2023-01-01T18:04:14.622Z,45.00
2023-01-01T18:07:16.121Z,45.77
2023-01-01T18:10:17.499Z,45.09
2023-01-01T18:13:19.544Z,45.23
2023-01-01T18:16:21.187Z,45.47
2023-01-01T18:19:22.625Z,45.42
2023-01-01T18:22:24.043Z,46.07
2023-01-01T18:25:25.467Z,45.77
2023-01-01T18:28:26.843Z,46.60
2023-01-01T18:31:30.927Z,46.16
2023-01-01T18:34:32.523Z,46.16
2023-01-01T18:37:36.709Z,46.22
2023-01-01T18:40:42.200Z,46.56
2023-01-01T18:43:43.615Z,47.50
2023-01-01T18:46:49.632Z,47.52
2023-01-01T18:50:05.744Z,47.92
2023-01-01T18:53:18.701Z,48.20
2023-01-01T18:56:20.109Z,48.09
2023-01-01T18:59:24.117Z,47.68
2023-01-01T19:02:33.102Z,46.95
2023-01-01T19:05:35.874Z,46.92
2023-01-01T19:08:37.311Z,47.00
2023-01-01T19:11:38.836Z,46.97
2023-01-01T19:14:41.079Z,46.47
2023-01-01T19:17:43.835Z,47.07
2023-01-01T19:20:45.927Z,47.35
2023-01-01T19:23:53.564Z,47.14
2023-01-01T19:27:16.194Z,48.61
2023-01-01T19:30:25.593Z,47.87
2023-01-01T19:33:28.358Z,47.66
2023-01-01T19:36:29.889Z,46.85
2023-01-01T19:39:31.903Z,46.31
2023-01-01T19:42:33.293Z,46.86
2023-01-01T19:45:34.730Z,46.22
2023-01-01T19:48:36.161Z,46.17
2023-01-01T19:51:40.597Z,45.22
2023-01-01T19:54:42.088Z,45.08
2023-01-01T19:57:43.611Z,44.73
2023-01-01T20:00:45.260Z,43.98
2023-01-01T20:03:55.805Z,43.82
2023-01-01T20:06:58.442Z,42.73
2023-01-01T20:10:00.061Z,42.48
2023-01-01T20:13:01.539Z,41.88
2023-01-01T20:16:03.343Z,41.46
2023-01-01T20:19:05.021Z,41.69
2023-01-01T20:22:13.802Z,42.24
2023-01-01T20:25:16.333Z,42.28
2023-01-01T20:28:36.513Z,41.94
2023-01-01T20:31:37.957Z,43.14
2023-01-01T20:34:40.466Z,43.77
2023-01-01T20:37:41.853Z,43.30
2023-01-01T20:40:43.308Z,44.28
2023-01-01T20:43:44.705Z,44.17
2023-01-01T20:46:47.985Z,43.96
2023-01-01T20:49:49.597Z,44.76
2023-01-01T20:52:51.022Z,44.51
2023-01-01T20:55:52.455Z,44.83
2023-01-01T20:59:00.080Z,44.64
2023-01-01T21:02:05.837Z,44.33
2023-01-01T21:05:08.486Z,43.58
2023-01-01T21:08:10.000Z,42.86
2023-01-01T21:11:11.461Z,41.94
2023-01-01T21:14:12.825Z,41.66
2023-01-01T21:17:24.387Z,41.60
2023-01-01T21:20:30.931Z,40.73
2023-01-01T21:23:32.500Z,40.16
2023-01-01T21:26:36.488Z,39.95
2023-01-01T21:29:44.058Z,39.44
2023-01-01T21:32:47.680Z,39.29
2023-01-01T21:35:49.158Z,38.68
2023-01-01T21:38:51.903Z,38.93
2023-01-01T21:41:58.918Z,38.94
2023-01-01T21:45:01.065Z,37.90
2023-01-01T21:48:15.566Z,38.81
2023-01-01T21:51:25.153Z,38.03
2023-01-01T21:54:37.460Z,38.32
2023-01-01T21:57:39.484Z,38.86
2023-01-01T22:00:40.891Z,38.85
2023-01-01T22:03:42.279Z,38.08
2023-01-01T22:06:46.402Z,37.86
2023-01-01T22:09:49.312Z,38.00
2023-01-01T22:13:00.634Z,38.28
2023-01-01T22:16:03.079Z,37.40
2023-01-01T22:19:21.561Z,37.31
2023-01-01T22:22:28.163Z,37.42
2023-01-01T22:25:31.864Z,37.21
2023-01-01T22:28:41.545Z,37.16
2023-01-01T22:31:48.930Z,38.28
2023-01-01T22:34:52.458Z,37.37
2023-01-01T22:37:56.260Z,37.27
2023-01-01T22:40:57.670Z,37.05
2023-01-01T22:44:02.596Z,37.05
2023-01-01T22:47:04.230Z,37.33
2023-01-01T22:50:08.752Z,36.03
2023-01-01T22:53:10.134Z,36.58
2023-01-01T22:56:11.776Z,36.54
2023-01-01T22:59:13.249Z,35.49
2023-01-01T23:02:14.768Z,35.12
2023-01-01T23:05:16.294Z,35.72
2023-01-01T23:08:17.867Z,35.77
2023-01-01T23:11:20.188Z,36.10
2023-01-01T23:14:41.312Z,36.65
2023-01-01T23:17:42.821Z,36.52
2023-01-01T23:20:44.216Z,37.28
2023-01-01T23:23:49.139Z,37.22
2023-01-01T23:26:51.879Z,37.60
2023-01-01T23:29:54.317Z,37.68
2023-01-01T23:32:55.890Z,37.64
2023-01-01T23:35:57.322Z,39.25
2023-01-01T23:38:58.807Z,38.86
2023-01-01T23:42:00.595Z,39.09
2023-01-01T23:45:01.966Z,38.50
2023-01-01T23:48:04.362Z,37.46
2023-01-01T23:51:05.858Z,36.72
2023-01-01T23:54:07.293Z,36.89
2023-01-01T23:57:08.735Z,37.61
